sensor_id;sensor_type;location;lat;lon;timestamp;P1;durP1;ratioP1;P2;durP2;ratioP2
11709;SDS011;5911;51.036;6.972;2023-06-14T00:02:01;5.63;;;4.97;;
11709;SDS011;5911;51.036;6.972;2023-06-14T00:04:30;6.75;;;4.95;;
11709;SDS011;5911;51.036;6.972;2023-06-14T00:06:59;5.85;;;5.35;;
11709;SDS011;5911;51.036;6.972;2023-06-14T00:09:27;7.60;;;5.10;;
11709;SDS011;5911;51.036;6.972;2023-06-14T00:11:54;7.13;;;5.13;;
11709;SDS011;5911;51.036;6.972;2023-06-14T00:14:22;5.18;;;4.68;;
11709;SDS011;5911;51.036;6.972;2023-06-14T00:16:50;6.85;;;5.70;;
11709;SDS011;5911;51.036;6.972;2023-06-14T00:19:19;5.50;;;5.00;;
11709;SDS011;5911;51.036;6.972;2023-06-14T00:21:47;5.97;;;4.95;;
11709;SDS011;5911;51.036;6.972;2023-06-14T00:24:16;5.57;;;5.07;;
11709;SDS011;5911;51.036;6.972;2023-06-14T00:26:44;6.13;;;5.05;;
11709;SDS011;5911;51.036;6.972;2023-06-14T00:29:12;5.53;;;4.63;;
11709;SDS011;5911;51.036;6.972;2023-06-14T00:31:39;9.27;;;5.45;;
11709;SDS011;5911;51.036;6.972;2023-06-14T00:34:07;9.10;;;5.13;;
11709;SDS011;5911;51.036;6.972;2023-06-14T00:36:35;5.55;;;5.05;;
11709;SDS011;5911;51.036;6.972;2023-06-14T00:39:03;7.40;;;4.65;;
11709;SDS011;5911;51.036;6.972;2023-06-14T00:41:32;5.28;;;4.38;;
11709;SDS011;5911;51.036;6.972;2023-06-14T00:44:00;5.60;;;5.10;;
11709;SDS011;5911;51.036;6.972;2023-06-14T00:46:28;4.85;;;4.40;;
11709;SDS011;5911;51.036;6.972;2023-06-14T00:48:56;6.43;;;5.03;;
11709;SDS011;5911;51.036;6.972;2023-06-14T00:51:25;5.15;;;4.50;;
11709;SDS011;5911;51.036;6.972;2023-06-14T00:53:53;4.90;;;4.50;;
11709;SDS011;5911;51.036;6.972;2023-06-14T00:56:22;5.50;;;5.00;;
11709;SDS011;5911;51.036;6.972;2023-06-14T00:58:52;5.03;;;4.63;;
11709;SDS011;5911;51.036;6.972;2023-06-14T01:01:20;5.93;;;5.32;;
11709;SDS011;5911;51.036;6.972;2023-06-14T01:03:48;7.07;;;5.40;;
11709;SDS011;5911;51.036;6.972;2023-06-14T01:06:20;7.40;;;5.60;;
11709;SDS011;5911;51.036;6.972;2023-06-14T01:08:58;6.88;;;5.28;;
11709;SDS011;5911;51.036;6.972;2023-06-14T01:11:37;7.78;;;5.40;;
11709;SDS011;5911;51.036;6.972;2023-06-14T01:14:10;15.18;;;5.93;;
11709;SDS011;5911;51.036;6.972;2023-06-14T01:16:40;9.20;;;5.90;;
11709;SDS011;5911;51.036;6.972;2023-06-14T01:19:09;8.98;;;5.85;;
11709;SDS011;5911;51.036;6.972;2023-06-14T01:21:40;6.57;;;5.45;;
11709;SDS011;5911;51.036;6.972;2023-06-14T01:24:10;6.25;;;5.25;;
11709;SDS011;5911;51.036;6.972;2023-06-14T01:26:38;9.18;;;5.70;;
11709;SDS011;5911;51.036;6.972;2023-06-14T01:29:12;6.30;;;5.30;;
11709;SDS011;5911;51.036;6.972;2023-06-14T01:31:44;7.43;;;5.32;;
11709;SDS011;5911;51.036;6.972;2023-06-14T01:34:13;6.20;;;5.40;;
11709;SDS011;5911;51.036;6.972;2023-06-14T01:36:42;6.07;;;5.15;;
11709;SDS011;5911;51.036;6.972;2023-06-14T01:39:13;6.00;;;5.38;;
11709;SDS011;5911;51.036;6.972;2023-06-14T01:41:42;5.90;;;5.30;;
11709;SDS011;5911;51.036;6.972;2023-06-14T01:44:12;5.43;;;4.93;;
11709;SDS011;5911;51.036;6.972;2023-06-14T01:46:42;5.90;;;5.28;;
11709;SDS011;5911;51.036;6.972;2023-06-14T01:49:11;4.70;;;4.30;;
11709;SDS011;5911;51.036;6.972;2023-06-14T01:51:39;5.55;;;4.75;;
11709;SDS011;5911;51.036;6.972;2023-06-14T01:54:07;5.70;;;4.90;;
11709;SDS011;5911;51.036;6.972;2023-06-14T01:56:39;7.28;;;5.00;;
11709;SDS011;5911;51.036;6.972;2023-06-14T01:59:06;5.40;;;4.97;;
11709;SDS011;5911;51.036;6.972;2023-06-14T02:01:34;8.63;;;4.95;;
11709;SDS011;5911;51.036;6.972;2023-06-14T02:04:03;6.38;;;5.43;;
11709;SDS011;5911;51.036;6.972;2023-06-14T02:06:31;5.32;;;4.82;;
11709;SDS011;5911;51.036;6.972;2023-06-14T02:09:00;5.70;;;4.90;;
11709;SDS011;5911;51.036;6.972;2023-06-14T02:11:29;5.63;;;5.13;;
11709;SDS011;5911;51.036;6.972;2023-06-14T02:13:59;5.07;;;4.55;;
11709;SDS011;5911;51.036;6.972;2023-06-14T02:16:28;5.70;;;5.10;;
11709;SDS011;5911;51.036;6.972;2023-06-14T02:18:56;5.30;;;4.80;;
11709;SDS011;5911;51.036;6.972;2023-06-14T02:21:24;7.60;;;5.10;;
11709;SDS011;5911;51.036;6.972;2023-06-14T02:23:52;5.82;;;4.10;;
11709;SDS011;5911;51.036;6.972;2023-06-14T02:26:20;6.65;;;5.15;;
11709;SDS011;5911;51.036;6.972;2023-06-14T02:28:48;5.90;;;4.90;;
11709;SDS011;5911;51.036;6.972;2023-06-14T02:31:17;4.63;;;4.20;;
11709;SDS011;5911;51.036;6.972;2023-06-14T02:33:47;5.50;;;5.00;;
11709;SDS011;5911;51.036;6.972;2023-06-14T02:36:15;5.82;;;4.93;;
11709;SDS011;5911;51.036;6.972;2023-06-14T02:38:43;5.20;;;4.80;;
11709;SDS011;5911;51.036;6.972;2023-06-14T02:41:11;5.53;;;4.88;;
11709;SDS011;5911;51.036;6.972;2023-06-14T02:43:39;6.25;;;4.78;;
11709;SDS011;5911;51.036;6.972;2023-06-14T02:46:06;5.72;;;4.75;;
11709;SDS011;5911;51.036;6.972;2023-06-14T02:48:37;5.00;;;4.53;;
11709;SDS011;5911;51.036;6.972;2023-06-14T02:51:05;9.05;;;5.47;;
11709;SDS011;5911;51.036;6.972;2023-06-14T02:53:34;5.35;;;4.85;;
11709;SDS011;5911;51.036;6.972;2023-06-14T02:56:02;5.65;;;5.07;;
11709;SDS011;5911;51.036;6.972;2023-06-14T02:58:31;5.18;;;4.68;;
11709;SDS011;5911;51.036;6.972;2023-06-14T03:00:59;5.13;;;4.63;;
11709;SDS011;5911;51.036;6.972;2023-06-14T03:03:29;6.28;;;5.05;;
11709;SDS011;5911;51.036;6.972;2023-06-14T03:05:59;4.65;;;4.20;;
11709;SDS011;5911;51.036;6.972;2023-06-14T03:08:33;5.90;;;5.05;;
11709;SDS011;5911;51.036;6.972;2023-06-14T03:11:10;5.05;;;4.53;;
11709;SDS011;5911;51.036;6.972;2023-06-14T03:13:38;9.00;;;4.57;;
11709;SDS011;5911;51.036;6.972;2023-06-14T03:16:07;7.47;;;4.88;;
11709;SDS011;5911;51.036;6.972;2023-06-14T03:18:38;6.78;;;5.03;;
11709;SDS011;5911;51.036;6.972;2023-06-14T03:21:08;6.10;;;4.40;;
11709;SDS011;5911;51.036;6.972;2023-06-14T03:23:40;5.30;;;4.80;;
11709;SDS011;5911;51.036;6.972;2023-06-14T03:26:09;6.80;;;5.00;;
11709;SDS011;5911;51.036;6.972;2023-06-14T03:28:40;5.10;;;4.53;;
11709;SDS011;5911;51.036;6.972;2023-06-14T03:31:08;9.70;;;4.78;;
11709;SDS011;5911;51.036;6.972;2023-06-14T03:33:36;6.35;;;4.55;;
11709;SDS011;5911;51.036;6.972;2023-06-14T03:36:04;7.57;;;5.07;;
11709;SDS011;5911;51.036;6.972;2023-06-14T03:38:34;7.65;;;4.93;;
11709;SDS011;5911;51.036;6.972;2023-06-14T03:41:03;5.65;;;4.70;;
11709;SDS011;5911;51.036;6.972;2023-06-14T03:43:31;5.25;;;4.82;;
11709;SDS011;5911;51.036;6.972;2023-06-14T03:46:00;7.30;;;4.80;;
11709;SDS011;5911;51.036;6.972;2023-06-14T03:48:29;6.00;;;4.85;;
11709;SDS011;5911;51.036;6.972;2023-06-14T03:50:58;7.80;;;4.68;;
11709;SDS011;5911;51.036;6.972;2023-06-14T03:53:28;5.40;;;4.90;;
11709;SDS011;5911;51.036;6.972;2023-06-14T03:55:58;7.10;;;4.47;;
11709;SDS011;5911;51.036;6.972;2023-06-14T03:58:34;5.50;;;4.88;;
11709;SDS011;5911;51.036;6.972;2023-06-14T04:01:03;5.60;;;4.95;;
11709;SDS011;5911;51.036;6.972;2023-06-14T04:03:30;7.88;;;4.68;;
11709;SDS011;5911;51.036;6.972;2023-06-14T04:06:00;10.18;;;5.60;;
11709;SDS011;5911;51.036;6.972;2023-06-14T04:08:28;6.60;;;5.03;;
11709;SDS011;5911;51.036;6.972;2023-06-14T04:10:59;7.40;;;5.10;;
11709;SDS011;5911;51.036;6.972;2023-06-14T04:13:27;5.40;;;4.82;;
11709;SDS011;5911;51.036;6.972;2023-06-14T04:15:54;8.35;;;5.28;;
11709;SDS011;5911;51.036;6.972;2023-06-14T04:18:28;9.30;;;5.28;;
11709;SDS011;5911;51.036;6.972;2023-06-14T04:20:56;5.95;;;5.35;;
11709;SDS011;5911;51.036;6.972;2023-06-14T04:23:24;8.70;;;5.35;;
11709;SDS011;5911;51.036;6.972;2023-06-14T04:25:55;10.93;;;5.32;;
11709;SDS011;5911;51.036;6.972;2023-06-14T04:28:29;8.82;;;5.78;;
11709;SDS011;5911;51.036;6.972;2023-06-14T04:31:00;11.13;;;5.95;;
11709;SDS011;5911;51.036;6.972;2023-06-14T04:33:31;10.00;;;5.85;;
11709;SDS011;5911;51.036;6.972;2023-06-14T04:36:00;16.45;;;6.30;;
11709;SDS011;5911;51.036;6.972;2023-06-14T04:38:28;9.68;;;5.53;;
11709;SDS011;5911;51.036;6.972;2023-06-14T04:41:01;8.18;;;5.03;;
11709;SDS011;5911;51.036;6.972;2023-06-14T04:43:30;5.65;;;5.10;;
11709;SDS011;5911;51.036;6.972;2023-06-14T04:46:05;6.10;;;5.07;;
11709;SDS011;5911;51.036;6.972;2023-06-14T04:48:37;9.10;;;5.22;;
11709;SDS011;5911;51.036;6.972;2023-06-14T04:51:09;10.07;;;4.93;;
11709;SDS011;5911;51.036;6.972;2023-06-14T04:53:37;7.18;;;5.18;;
11709;SDS011;5911;51.036;6.972;2023-06-14T04:56:05;6.57;;;5.32;;
11709;SDS011;5911;51.036;6.972;2023-06-14T04:58:35;6.63;;;4.90;;
11709;SDS011;5911;51.036;6.972;2023-06-14T05:01:02;8.55;;;4.70;;
11709;SDS011;5911;51.036;6.972;2023-06-14T05:03:31;10.60;;;4.72;;
11709;SDS011;5911;51.036;6.972;2023-06-14T05:06:01;6.03;;;4.35;;
11709;SDS011;5911;51.036;6.972;2023-06-14T05:08:29;6.28;;;4.50;;
11709;SDS011;5911;51.036;6.972;2023-06-14T05:10:57;5.78;;;4.47;;
11709;SDS011;5911;51.036;6.972;2023-06-14T05:13:25;8.32;;;4.13;;
11709;SDS011;5911;51.036;6.972;2023-06-14T05:15:56;7.30;;;4.03;;
11709;SDS011;5911;51.036;6.972;2023-06-14T05:18:24;6.47;;;3.80;;
11709;SDS011;5911;51.036;6.972;2023-06-14T05:20:52;5.70;;;4.13;;
11709;SDS011;5911;51.036;6.972;2023-06-14T05:23:20;5.43;;;3.63;;
11709;SDS011;5911;51.036;6.972;2023-06-14T05:25:47;8.50;;;4.55;;
11709;SDS011;5911;51.036;6.972;2023-06-14T05:28:15;9.40;;;3.95;;
11709;SDS011;5911;51.036;6.972;2023-06-14T05:30:43;8.95;;;4.28;;
11709;SDS011;5911;51.036;6.972;2023-06-14T05:33:13;5.13;;;4.57;;
11709;SDS011;5911;51.036;6.972;2023-06-14T05:35:40;8.15;;;4.18;;
11709;SDS011;5911;51.036;6.972;2023-06-14T05:38:09;8.38;;;3.97;;
11709;SDS011;5911;51.036;6.972;2023-06-14T05:40:36;4.75;;;3.97;;
11709;SDS011;5911;51.036;6.972;2023-06-14T05:43:04;6.32;;;4.30;;
11709;SDS011;5911;51.036;6.972;2023-06-14T05:45:32;4.68;;;3.75;;
11709;SDS011;5911;51.036;6.972;2023-06-14T05:48:00;4.43;;;4.03;;
11709;SDS011;5911;51.036;6.972;2023-06-14T05:50:30;10.30;;;4.20;;
11709;SDS011;5911;51.036;6.972;2023-06-14T05:52:58;6.35;;;3.90;;
11709;SDS011;5911;51.036;6.972;2023-06-14T05:55:25;5.43;;;3.60;;
11709;SDS011;5911;51.036;6.972;2023-06-14T05:57:53;5.20;;;3.70;;
11709;SDS011;5911;51.036;6.972;2023-06-14T06:00:21;4.88;;;3.83;;
11709;SDS011;5911;51.036;6.972;2023-06-14T06:02:49;6.55;;;3.58;;
11709;SDS011;5911;51.036;6.972;2023-06-14T06:05:17;8.23;;;3.67;;
11709;SDS011;5911;51.036;6.972;2023-06-14T06:07:47;5.82;;;3.42;;
11709;SDS011;5911;51.036;6.972;2023-06-14T06:10:14;5.55;;;3.65;;
11709;SDS011;5911;51.036;6.972;2023-06-14T06:12:42;7.55;;;3.65;;
11709;SDS011;5911;51.036;6.972;2023-06-14T06:15:10;6.82;;;3.72;;
11709;SDS011;5911;51.036;6.972;2023-06-14T06:17:40;5.72;;;3.17;;
11709;SDS011;5911;51.036;6.972;2023-06-14T06:20:21;4.80;;;3.75;;
11709;SDS011;5911;51.036;6.972;2023-06-14T06:22:55;5.53;;;3.00;;
11709;SDS011;5911;51.036;6.972;2023-06-14T06:25:23;4.60;;;3.33;;
11709;SDS011;5911;51.036;6.972;2023-06-14T06:27:52;4.15;;;3.15;;
11709;SDS011;5911;51.036;6.972;2023-06-14T06:30:20;4.63;;;3.20;;
11709;SDS011;5911;51.036;6.972;2023-06-14T06:32:48;4.10;;;3.20;;
11709;SDS011;5911;51.036;6.972;2023-06-14T06:35:17;5.93;;;3.65;;
11709;SDS011;5911;51.036;6.972;2023-06-14T06:37:45;3.97;;;3.58;;
11709;SDS011;5911;51.036;6.972;2023-06-14T06:40:14;3.55;;;3.20;;
11709;SDS011;5911;51.036;6.972;2023-06-14T06:42:42;5.60;;;3.22;;
11709;SDS011;5911;51.036;6.972;2023-06-14T06:45:12;4.90;;;2.90;;
11709;SDS011;5911;51.036;6.972;2023-06-14T06:47:40;5.70;;;3.30;;
11709;SDS011;5911;51.036;6.972;2023-06-14T06:50:08;6.18;;;2.83;;
11709;SDS011;5911;51.036;6.972;2023-06-14T06:52:36;4.15;;;3.65;;
11709;SDS011;5911;51.036;6.972;2023-06-14T06:55:04;5.93;;;3.47;;
11709;SDS011;5911;51.036;6.972;2023-06-14T06:57:34;4.40;;;3.22;;
11709;SDS011;5911;51.036;6.972;2023-06-14T07:00:01;2.92;;;2.67;;
11709;SDS011;5911;51.036;6.972;2023-06-14T07:02:32;4.57;;;3.08;;
11709;SDS011;5911;51.036;6.972;2023-06-14T07:04:59;4.10;;;3.00;;
11709;SDS011;5911;51.036;6.972;2023-06-14T07:07:27;3.00;;;2.60;;
11709;SDS011;5911;51.036;6.972;2023-06-14T07:09:55;4.30;;;3.15;;
11709;SDS011;5911;51.036;6.972;2023-06-14T07:12:24;6.35;;;3.42;;
11709;SDS011;5911;51.036;6.972;2023-06-14T07:14:53;3.05;;;2.75;;
11709;SDS011;5911;51.036;6.972;2023-06-14T07:17:21;4.53;;;3.08;;
11709;SDS011;5911;51.036;6.972;2023-06-14T07:19:49;4.13;;;2.80;;
11709;SDS011;5911;51.036;6.972;2023-06-14T07:22:17;3.53;;;2.63;;
11709;SDS011;5911;51.036;6.972;2023-06-14T07:24:45;2.60;;;2.40;;
11709;SDS011;5911;51.036;6.972;2023-06-14T07:27:13;5.55;;;2.35;;
11709;SDS011;5911;51.036;6.972;2023-06-14T07:29:41;6.57;;;2.50;;
11709;SDS011;5911;51.036;6.972;2023-06-14T07:32:10;2.78;;;2.53;;
11709;SDS011;5911;51.036;6.972;2023-06-14T07:34:38;5.18;;;2.63;;
11709;SDS011;5911;51.036;6.972;2023-06-14T07:37:06;2.55;;;2.35;;
11709;SDS011;5911;51.036;6.972;2023-06-14T07:39:33;2.95;;;2.42;;
11709;SDS011;5911;51.036;6.972;2023-06-14T07:42:01;7.30;;;2.10;;
11709;SDS011;5911;51.036;6.972;2023-06-14T07:44:30;1.98;;;1.88;;
11709;SDS011;5911;51.036;6.972;2023-06-14T07:46:58;2.00;;;1.80;;
11709;SDS011;5911;51.036;6.972;2023-06-14T07:49:28;3.67;;;2.10;;
11709;SDS011;5911;51.036;6.972;2023-06-14T07:51:55;3.33;;;1.90;;
11709;SDS011;5911;51.036;6.972;2023-06-14T07:54:36;3.10;;;2.22;;
11709;SDS011;5911;51.036;6.972;2023-06-14T07:57:05;2.25;;;1.83;;
11709;SDS011;5911;51.036;6.972;2023-06-14T07:59:33;3.13;;;1.83;;
11709;SDS011;5911;51.036;6.972;2023-06-14T08:02:01;2.22;;;1.80;;
11709;SDS011;5911;51.036;6.972;2023-06-14T08:04:30;2.80;;;1.88;;
11709;SDS011;5911;51.036;6.972;2023-06-14T08:06:58;2.78;;;2.10;;
11709;SDS011;5911;51.036;6.972;2023-06-14T08:09:27;3.38;;;1.77;;
11709;SDS011;5911;51.036;6.972;2023-06-14T08:11:56;4.07;;;2.05;;
11709;SDS011;5911;51.036;6.972;2023-06-14T08:14:23;4.20;;;2.20;;
11709;SDS011;5911;51.036;6.972;2023-06-14T08:16:51;2.88;;;2.28;;
11709;SDS011;5911;51.036;6.972;2023-06-14T08:19:20;2.67;;;2.22;;
11709;SDS011;5911;51.036;6.972;2023-06-14T08:21:49;2.20;;;1.98;;
11709;SDS011;5911;51.036;6.972;2023-06-14T08:24:17;2.80;;;1.85;;
11709;SDS011;5911;51.036;6.972;2023-06-14T08:26:45;2.05;;;1.85;;
11709;SDS011;5911;51.036;6.972;2023-06-14T08:29:13;3.25;;;2.13;;
11709;SDS011;5911;51.036;6.972;2023-06-14T08:31:41;2.35;;;2.15;;
11709;SDS011;5911;51.036;6.972;2023-06-14T08:34:09;4.88;;;2.40;;
11709;SDS011;5911;51.036;6.972;2023-06-14T08:36:37;3.08;;;1.85;;
11709;SDS011;5911;51.036;6.972;2023-06-14T08:39:06;2.33;;;2.10;;
11709;SDS011;5911;51.036;6.972;2023-06-14T08:41:35;2.47;;;2.28;;
11709;SDS011;5911;51.036;6.972;2023-06-14T08:44:03;3.95;;;2.10;;
11709;SDS011;5911;51.036;6.972;2023-06-14T08:46:32;2.03;;;1.83;;
11709;SDS011;5911;51.036;6.972;2023-06-14T08:49:01;2.72;;;2.20;;
11709;SDS011;5911;51.036;6.972;2023-06-14T08:51:29;4.82;;;1.77;;
11709;SDS011;5911;51.036;6.972;2023-06-14T08:54:00;2.50;;;2.30;;
11709;SDS011;5911;51.036;6.972;2023-06-14T08:56:31;2.40;;;2.20;;
11709;SDS011;5911;51.036;6.972;2023-06-14T08:59:00;4.38;;;2.03;;
11709;SDS011;5911;51.036;6.972;2023-06-14T09:01:30;3.28;;;2.30;;
11709;SDS011;5911;51.036;6.972;2023-06-14T09:04:00;2.25;;;1.90;;
11709;SDS011;5911;51.036;6.972;2023-06-14T09:06:31;1.90;;;1.80;;
11709;SDS011;5911;51.036;6.972;2023-06-14T09:08:59;2.78;;;2.05;;
11709;SDS011;5911;51.036;6.972;2023-06-14T09:11:28;2.63;;;1.90;;
11709;SDS011;5911;51.036;6.972;2023-06-14T09:13:58;4.20;;;2.30;;
11709;SDS011;5911;51.036;6.972;2023-06-14T09:16:28;3.10;;;1.73;;
11709;SDS011;5911;51.036;6.972;2023-06-14T09:18:59;9.10;;;2.28;;
11709;SDS011;5911;51.036;6.972;2023-06-14T09:21:27;2.08;;;1.85;;
11709;SDS011;5911;51.036;6.972;2023-06-14T09:23:57;3.05;;;1.95;;
11709;SDS011;5911;51.036;6.972;2023-06-14T09:26:28;2.10;;;1.80;;
11709;SDS011;5911;51.036;6.972;2023-06-14T09:28:56;2.30;;;2.10;;
11709;SDS011;5911;51.036;6.972;2023-06-14T09:31:26;1.80;;;1.70;;
11709;SDS011;5911;51.036;6.972;2023-06-14T09:33:58;3.70;;;2.00;;
11709;SDS011;5911;51.036;6.972;2023-06-14T09:36:31;1.88;;;1.73;;
11709;SDS011;5911;51.036;6.972;2023-06-14T09:39:00;3.15;;;2.67;;
11709;SDS011;5911;51.036;6.972;2023-06-14T09:41:32;3.20;;;2.08;;
11709;SDS011;5911;51.036;6.972;2023-06-14T09:44:03;5.15;;;2.00;;
11709;SDS011;5911;51.036;6.972;2023-06-14T09:46:36;2.42;;;2.22;;
11709;SDS011;5911;51.036;6.972;2023-06-14T09:49:05;3.25;;;1.77;;
11709;SDS011;5911;51.036;6.972;2023-06-14T09:51:33;2.80;;;2.13;;
11709;SDS011;5911;51.036;6.972;2023-06-14T09:54:04;4.78;;;1.90;;
11709;SDS011;5911;51.036;6.972;2023-06-14T09:56:34;2.00;;;1.80;;
11709;SDS011;5911;51.036;6.972;2023-06-14T09:59:05;2.92;;;1.90;;
11709;SDS011;5911;51.036;6.972;2023-06-14T10:01:41;2.97;;;2.30;;
11709;SDS011;5911;51.036;6.972;2023-06-14T10:04:10;4.05;;;1.77;;
11709;SDS011;5911;51.036;6.972;2023-06-14T10:06:42;5.57;;;2.72;;
11709;SDS011;5911;51.036;6.972;2023-06-14T10:09:12;3.47;;;1.85;;
11709;SDS011;5911;51.036;6.972;2023-06-14T10:11:40;2.95;;;1.88;;
11709;SDS011;5911;51.036;6.972;2023-06-14T10:14:12;2.13;;;1.65;;
11709;SDS011;5911;51.036;6.972;2023-06-14T10:16:42;1.90;;;1.80;;
11709;SDS011;5911;51.036;6.972;2023-06-14T10:19:17;4.60;;;2.15;;
11709;SDS011;5911;51.036;6.972;2023-06-14T10:21:51;3.53;;;2.10;;
11709;SDS011;5911;51.036;6.972;2023-06-14T10:24:29;4.60;;;2.20;;
11709;SDS011;5911;51.036;6.972;2023-06-14T10:27:00;6.22;;;3.83;;
11709;SDS011;5911;51.036;6.972;2023-06-14T10:29:29;2.75;;;2.17;;
11709;SDS011;5911;51.036;6.972;2023-06-14T10:31:59;4.20;;;2.92;;
11709;SDS011;5911;51.036;6.972;2023-06-14T10:34:28;3.20;;;2.25;;
11709;SDS011;5911;51.036;6.972;2023-06-14T10:37:01;3.67;;;2.05;;
11709;SDS011;5911;51.036;6.972;2023-06-14T10:39:30;4.63;;;1.90;;
11709;SDS011;5911;51.036;6.972;2023-06-14T10:41:58;3.42;;;2.17;;
11709;SDS011;5911;51.036;6.972;2023-06-14T10:44:39;3.08;;;2.17;;
11709;SDS011;5911;51.036;6.972;2023-06-14T10:47:21;3.97;;;2.10;;
11709;SDS011;5911;51.036;6.972;2023-06-14T10:49:54;4.18;;;2.10;;
11709;SDS011;5911;51.036;6.972;2023-06-14T10:52:24;2.53;;;2.00;;
11709;SDS011;5911;51.036;6.972;2023-06-14T10:54:55;3.75;;;2.03;;
11709;SDS011;5911;51.036;6.972;2023-06-14T10:57:35;4.43;;;2.15;;
11709;SDS011;5911;51.036;6.972;2023-06-14T11:00:19;2.75;;;2.10;;
11709;SDS011;5911;51.036;6.972;2023-06-14T11:05:51;4.88;;;1.98;;
11709;SDS011;5911;51.036;6.972;2023-06-14T11:11:12;2.30;;;2.10;;
11709;SDS011;5911;51.036;6.972;2023-06-14T11:13:41;2.67;;;1.95;;
11709;SDS011;5911;51.036;6.972;2023-06-14T11:16:12;2.08;;;1.88;;
11709;SDS011;5911;51.036;6.972;2023-06-14T11:18:41;3.75;;;2.28;;
11709;SDS011;5911;51.036;6.972;2023-06-14T11:21:09;2.90;;;1.90;;
11709;SDS011;5911;51.036;6.972;2023-06-14T11:23:37;2.85;;;2.00;;
11709;SDS011;5911;51.036;6.972;2023-06-14T11:26:05;3.72;;;2.00;;
11709;SDS011;5911;51.036;6.972;2023-06-14T11:28:37;2.67;;;1.90;;
11709;SDS011;5911;51.036;6.972;2023-06-14T11:31:05;5.00;;;2.17;;
11709;SDS011;5911;51.036;6.972;2023-06-14T11:33:35;2.45;;;1.80;;
11709;SDS011;5911;51.036;6.972;2023-06-14T11:36:04;4.10;;;1.92;;
11709;SDS011;5911;51.036;6.972;2023-06-14T11:38:35;4.63;;;1.85;;
11709;SDS011;5911;51.036;6.972;2023-06-14T11:41:04;2.10;;;1.90;;
11709;SDS011;5911;51.036;6.972;2023-06-14T11:43:32;2.70;;;1.80;;
11709;SDS011;5911;51.036;6.972;2023-06-14T11:46:01;2.78;;;1.85;;
11709;SDS011;5911;51.036;6.972;2023-06-14T11:48:37;2.50;;;1.83;;
11709;SDS011;5911;51.036;6.972;2023-06-14T11:51:05;2.33;;;1.60;;
11709;SDS011;5911;51.036;6.972;2023-06-14T11:53:33;2.60;;;1.65;;
11709;SDS011;5911;51.036;6.972;2023-06-14T11:56:01;1.48;;;1.38;;
11709;SDS011;5911;51.036;6.972;2023-06-14T11:58:30;4.53;;;1.60;;
11709;SDS011;5911;51.036;6.972;2023-06-14T12:00:57;2.53;;;1.65;;
11709;SDS011;5911;51.036;6.972;2023-06-14T12:03:25;1.75;;;1.40;;
11709;SDS011;5911;51.036;6.972;2023-06-14T12:06:06;2.05;;;1.42;;
11709;SDS011;5911;51.036;6.972;2023-06-14T12:08:35;1.90;;;1.40;;
11709;SDS011;5911;51.036;6.972;2023-06-14T12:11:06;1.63;;;1.30;;
11709;SDS011;5911;51.036;6.972;2023-06-14T12:13:38;3.17;;;1.55;;
11709;SDS011;5911;51.036;6.972;2023-06-14T12:16:06;1.40;;;1.30;;
11709;SDS011;5911;51.036;6.972;2023-06-14T12:18:35;3.40;;;1.30;;
11709;SDS011;5911;51.036;6.972;2023-06-14T12:21:04;1.52;;;1.30;;
11709;SDS011;5911;51.036;6.972;2023-06-14T12:23:41;1.60;;;1.27;;
11709;SDS011;5911;51.036;6.972;2023-06-14T12:26:12;2.95;;;1.13;;
11709;SDS011;5911;51.036;6.972;2023-06-14T12:28:40;1.65;;;1.52;;
11709;SDS011;5911;51.036;6.972;2023-06-14T12:31:10;2.42;;;1.40;;
11709;SDS011;5911;51.036;6.972;2023-06-14T12:33:39;1.70;;;1.23;;
11709;SDS011;5911;51.036;6.972;2023-06-14T12:36:08;2.67;;;1.88;;
11709;SDS011;5911;51.036;6.972;2023-06-14T12:38:37;1.38;;;1.25;;
11709;SDS011;5911;51.036;6.972;2023-06-14T12:41:05;2.40;;;1.33;;
11709;SDS011;5911;51.036;6.972;2023-06-14T12:43:34;3.08;;;1.60;;
11709;SDS011;5911;51.036;6.972;2023-06-14T12:46:01;3.78;;;1.40;;
11709;SDS011;5911;51.036;6.972;2023-06-14T12:48:29;1.90;;;1.33;;
11709;SDS011;5911;51.036;6.972;2023-06-14T12:50:57;1.13;;;1.05;;
11709;SDS011;5911;51.036;6.972;2023-06-14T12:53:26;3.38;;;1.60;;
11709;SDS011;5911;51.036;6.972;2023-06-14T12:55:54;5.13;;;1.88;;
11709;SDS011;5911;51.036;6.972;2023-06-14T12:58:22;2.28;;;1.02;;
11709;SDS011;5911;51.036;6.972;2023-06-14T13:00:50;3.25;;;1.80;;
11709;SDS011;5911;51.036;6.972;2023-06-14T13:03:18;2.13;;;1.30;;
11709;SDS011;5911;51.036;6.972;2023-06-14T13:05:46;2.78;;;1.30;;
11709;SDS011;5911;51.036;6.972;2023-06-14T13:08:13;2.13;;;1.40;;
11709;SDS011;5911;51.036;6.972;2023-06-14T13:10:43;2.28;;;1.40;;
11709;SDS011;5911;51.036;6.972;2023-06-14T13:13:10;2.03;;;1.80;;
11709;SDS011;5911;51.036;6.972;2023-06-14T13:15:38;1.30;;;1.20;;
11709;SDS011;5911;51.036;6.972;2023-06-14T13:18:07;1.30;;;1.20;;
11709;SDS011;5911;51.036;6.972;2023-06-14T13:20:34;2.13;;;1.40;;
11709;SDS011;5911;51.036;6.972;2023-06-14T13:23:02;1.42;;;1.20;;
11709;SDS011;5911;51.036;6.972;2023-06-14T13:25:32;4.93;;;1.50;;
11709;SDS011;5911;51.036;6.972;2023-06-14T13:28:04;2.13;;;1.23;;
11709;SDS011;5911;51.036;6.972;2023-06-14T13:30:35;7.53;;;1.38;;
11709;SDS011;5911;51.036;6.972;2023-06-14T13:33:03;4.35;;;1.65;;
11709;SDS011;5911;51.036;6.972;2023-06-14T13:35:31;2.33;;;1.77;;
11709;SDS011;5911;51.036;6.972;2023-06-14T13:37:59;1.80;;;1.70;;
11709;SDS011;5911;51.036;6.972;2023-06-14T13:40:27;1.70;;;1.30;;
11709;SDS011;5911;51.036;6.972;2023-06-14T13:42:54;1.52;;;1.25;;
11709;SDS011;5911;51.036;6.972;2023-06-14T13:45:24;2.90;;;1.40;;
11709;SDS011;5911;51.036;6.972;2023-06-14T13:47:52;2.88;;;1.50;;
11709;SDS011;5911;51.036;6.972;2023-06-14T13:50:21;1.70;;;1.20;;
11709;SDS011;5911;51.036;6.972;2023-06-14T13:52:48;1.52;;;1.42;;
11709;SDS011;5911;51.036;6.972;2023-06-14T13:55:16;3.25;;;1.35;;
11709;SDS011;5911;51.036;6.972;2023-06-14T13:57:44;2.22;;;1.33;;
11709;SDS011;5911;51.036;6.972;2023-06-14T14:00:13;1.77;;;1.60;;
11709;SDS011;5911;51.036;6.972;2023-06-14T14:02:49;3.65;;;1.65;;
11709;SDS011;5911;51.036;6.972;2023-06-14T14:05:18;1.65;;;1.40;;
11709;SDS011;5911;51.036;6.972;2023-06-14T14:07:49;1.67;;;1.50;;
11709;SDS011;5911;51.036;6.972;2023-06-14T14:10:22;2.88;;;1.60;;
11709;SDS011;5911;51.036;6.972;2023-06-14T14:12:51;3.42;;;1.90;;
11709;SDS011;5911;51.036;6.972;2023-06-14T14:15:19;2.60;;;1.63;;
11709;SDS011;5911;51.036;6.972;2023-06-14T14:17:46;3.45;;;1.50;;
11709;SDS011;5911;51.036;6.972;2023-06-14T14:20:16;1.50;;;1.40;;
11709;SDS011;5911;51.036;6.972;2023-06-14T14:22:46;2.45;;;1.33;;
11709;SDS011;5911;51.036;6.972;2023-06-14T14:25:16;1.73;;;1.50;;
11709;SDS011;5911;51.036;6.972;2023-06-14T14:27:46;2.55;;;1.67;;
11709;SDS011;5911;51.036;6.972;2023-06-14T14:30:14;3.97;;;1.88;;
11709;SDS011;5911;51.036;6.972;2023-06-14T14:32:43;3.40;;;1.50;;
11709;SDS011;5911;51.036;6.972;2023-06-14T14:35:11;2.35;;;1.60;;
11709;SDS011;5911;51.036;6.972;2023-06-14T14:37:40;3.45;;;2.13;;
11709;SDS011;5911;51.036;6.972;2023-06-14T14:40:08;1.70;;;1.60;;
11709;SDS011;5911;51.036;6.972;2023-06-14T14:42:37;1.80;;;1.70;;
11709;SDS011;5911;51.036;6.972;2023-06-14T14:45:05;3.08;;;1.80;;
11709;SDS011;5911;51.036;6.972;2023-06-14T14:47:34;1.92;;;1.58;;
11709;SDS011;5911;51.036;6.972;2023-06-14T14:50:05;1.70;;;1.60;;
11709;SDS011;5911;51.036;6.972;2023-06-14T14:52:40;1.60;;;1.48;;
11709;SDS011;5911;51.036;6.972;2023-06-14T14:55:08;2.00;;;1.80;;
11709;SDS011;5911;51.036;6.972;2023-06-14T14:57:36;2.33;;;2.08;;
11709;SDS011;5911;51.036;6.972;2023-06-14T15:00:04;2.65;;;1.90;;
11709;SDS011;5911;51.036;6.972;2023-06-14T15:02:33;2.42;;;1.60;;
11709;SDS011;5911;51.036;6.972;2023-06-14T15:05:01;3.05;;;1.80;;
11709;SDS011;5911;51.036;6.972;2023-06-14T15:07:29;2.63;;;2.00;;
11709;SDS011;5911;51.036;6.972;2023-06-14T15:10:01;2.10;;;1.73;;
11709;SDS011;5911;51.036;6.972;2023-06-14T15:12:29;2.55;;;1.90;;
11709;SDS011;5911;51.036;6.972;2023-06-14T15:14:56;3.65;;;1.50;;
11709;SDS011;5911;51.036;6.972;2023-06-14T15:17:24;2.00;;;1.75;;
11709;SDS011;5911;51.036;6.972;2023-06-14T15:19:53;3.30;;;1.92;;